createdAt,value
2023-05-19T00:01:37.562Z,40.40
2023-05-19T00:04:05.402Z,40.70
2023-05-19T00:06:33.436Z,40.50
2023-05-19T00:09:13.788Z,40.60
2023-05-19T00:11:43.607Z,41.20
2023-05-19T00:14:17.905Z,40.60
2023-05-19T00:16:50.206Z,40.70
2023-05-19T00:19:17.764Z,40.80
2023-05-19T00:21:49.680Z,40.80
2023-05-19T00:24:23.630Z,40.90
2023-05-19T00:26:52.867Z,41.30
2023-05-19T00:29:19.786Z,41.80
2023-05-19T00:31:49.050Z,41.10
2023-05-19T00:34:16.023Z,41.20
2023-05-19T00:36:45.431Z,41.30
2023-05-19T00:39:19.629Z,41.30
2023-05-19T00:41:50.995Z,41.40
2023-05-19T00:44:22.511Z,41.40
2023-05-19T00:46:49.606Z,41.70
2023-05-19T00:49:19.054Z,41.50
2023-05-19T00:51:46.563Z,41.50
2023-05-19T00:54:16.065Z,41.60
2023-05-19T00:56:45.238Z,41.60
2023-05-19T00:59:12.921Z,41.70
2023-05-19T01:01:43.185Z,41.70
2023-05-19T01:04:16.727Z,41.90
2023-05-19T01:06:47.662Z,41.80
2023-05-19T01:09:14.872Z,41.90
2023-05-19T01:11:44.201Z,41.90
2023-05-19T01:14:15.705Z,42.00
2023-05-19T01:17:05.378Z,42.00
2023-05-19T01:20:11.075Z,42.30
2023-05-19T01:23:15.019Z,43.40
2023-05-19T01:26:25.959Z,43.00
2023-05-19T01:29:17.305Z,43.40
2023-05-19T01:31:50.342Z,43.10
2023-05-19T01:34:22.558Z,42.20
2023-05-19T01:36:55.903Z,42.30
2023-05-19T01:39:25.112Z,42.40
2023-05-19T01:41:54.578Z,42.50
2023-05-19T01:44:25.430Z,42.50
2023-05-19T01:46:52.913Z,42.60
2023-05-19T01:49:19.841Z,42.70
2023-05-19T01:51:46.819Z,42.70
2023-05-19T01:54:14.163Z,42.70
2023-05-19T01:56:57.699Z,42.80
2023-05-19T01:59:48.507Z,43.00
2023-05-19T02:02:43.849Z,44.00
2023-05-19T02:05:29.428Z,43.30
2023-05-19T02:08:16.995Z,43.60
2023-05-19T02:11:09.724Z,43.20
2023-05-19T02:13:44.490Z,43.30
2023-05-19T02:16:16.534Z,43.10
2023-05-19T02:18:45.440Z,43.20
2023-05-19T02:21:14.775Z,43.50
2023-05-19T02:23:42.032Z,43.20
2023-05-19T02:26:13.579Z,43.30
2023-05-19T02:28:44.994Z,43.60
2023-05-19T02:31:13.894Z,43.40
2023-05-19T02:33:45.717Z,43.50
2023-05-19T02:36:19.092Z,43.40
2023-05-19T02:38:52.576Z,43.50
2023-05-19T02:41:19.511Z,43.80
2023-05-19T02:43:53.287Z,43.60
2023-05-19T02:46:20.669Z,43.70
2023-05-19T02:48:51.163Z,43.70
2023-05-19T02:51:21.268Z,44.00
2023-05-19T02:53:50.998Z,43.80
2023-05-19T02:56:21.198Z,44.10
2023-05-19T02:58:48.186Z,43.90
2023-05-19T03:01:23.211Z,43.90
2023-05-19T03:03:52.509Z,44.00
2023-05-19T03:06:24.305Z,43.90
2023-05-19T03:08:51.432Z,44.10
2023-05-19T03:11:20.833Z,44.10
2023-05-19T03:13:47.770Z,44.40
2023-05-19T03:16:17.132Z,44.20
2023-05-19T03:18:46.338Z,44.50
2023-05-19T03:21:20.912Z,45.00
2023-05-19T03:23:47.852Z,44.60
2023-05-19T03:26:14.758Z,44.40
2023-05-19T03:28:48.840Z,44.50
2023-05-19T03:31:19.088Z,44.50
2023-05-19T03:33:48.550Z,44.70
2023-05-19T03:36:15.456Z,44.60
2023-05-19T03:38:44.602Z,44.60
2023-05-19T03:41:15.954Z,44.80
2023-05-19T03:43:42.888Z,44.80
2023-05-19T03:46:12.170Z,44.90
2023-05-19T03:49:04.243Z,44.90
2023-05-19T03:51:49.889Z,45.00
2023-05-19T03:54:35.870Z,44.80
2023-05-19T03:57:05.890Z,45.10
2023-05-19T03:59:41.371Z,44.90
2023-05-19T04:02:08.468Z,45.20
2023-05-19T04:04:35.749Z,45.00
2023-05-19T04:07:07.276Z,45.10
2023-05-19T04:09:35.235Z,45.10
2023-05-19T04:12:05.437Z,45.20
2023-05-19T04:14:34.915Z,45.30
2023-05-19T04:17:04.464Z,45.50
2023-05-19T04:19:33.962Z,45.40
2023-05-19T04:22:04.328Z,45.40
2023-05-19T04:24:31.394Z,45.40
2023-05-19T04:27:04.735Z,45.40
2023-05-19T04:29:32.610Z,45.50
2023-05-19T04:32:02.039Z,45.50
2023-05-19T04:34:31.246Z,45.50
2023-05-19T04:36:59.116Z,45.70
2023-05-19T04:39:28.390Z,45.70
2023-05-19T04:41:57.857Z,45.80
2023-05-19T04:44:25.301Z,45.90
2023-05-19T04:46:57.848Z,46.00
2023-05-19T04:49:27.197Z,45.90
2023-05-19T04:51:56.544Z,46.00
2023-05-19T04:54:27.677Z,46.00
2023-05-19T04:56:56.747Z,46.10
2023-05-19T04:59:30.000Z,46.10
2023-05-19T05:01:57.922Z,46.30
2023-05-19T05:04:29.658Z,46.20
2023-05-19T05:07:01.170Z,46.10
2023-05-19T05:09:33.464Z,46.30
2023-05-19T05:12:03.056Z,46.30
2023-05-19T05:14:34.554Z,46.40
2023-05-19T05:17:04.305Z,46.40
2023-05-19T05:19:36.429Z,46.40
2023-05-19T05:22:07.514Z,46.50
2023-05-19T05:24:38.533Z,46.50
2023-05-19T05:27:08.045Z,46.50
2023-05-19T05:29:39.772Z,46.50
2023-05-19T05:32:12.583Z,46.50
2023-05-19T05:34:45.196Z,46.80
2023-05-19T05:37:15.390Z,46.60
2023-05-19T05:39:44.762Z,46.60
2023-05-19T05:42:12.236Z,46.60
2023-05-19T05:44:45.230Z,46.70
2023-05-19T05:47:17.528Z,46.80
2023-05-19T05:49:48.111Z,47.00
2023-05-19T05:52:20.897Z,46.80
2023-05-19T05:54:51.315Z,46.80
2023-05-19T05:57:23.994Z,46.80
2023-05-19T05:59:53.554Z,46.80
2023-05-19T06:02:20.846Z,46.90
2023-05-19T06:04:54.100Z,46.90
2023-05-19T06:07:24.285Z,47.00
2023-05-19T06:09:56.752Z,47.00
2023-05-19T06:12:27.185Z,47.00
2023-05-19T06:14:54.769Z,47.00
2023-05-19T06:17:38.200Z,46.90
2023-05-19T06:20:06.619Z,47.10
2023-05-19T06:22:38.425Z,47.10
2023-05-19T06:25:11.554Z,47.10
2023-05-19T06:27:41.613Z,47.10
2023-05-19T06:30:15.916Z,47.20
2023-05-19T06:32:57.816Z,47.20
2023-05-19T06:35:26.310Z,47.30
2023-05-19T06:37:56.133Z,47.20
2023-05-19T06:40:28.215Z,47.10
2023-05-19T06:42:58.139Z,47.30
2023-05-19T06:45:41.761Z,47.20
2023-05-19T06:48:13.474Z,47.20
2023-05-19T06:50:43.513Z,47.20
2023-05-19T06:53:10.427Z,47.20
2023-05-19T06:55:57.546Z,47.20
2023-05-19T06:58:27.981Z,47.20
2023-05-19T07:00:59.996Z,47.10
2023-05-19T07:03:34.039Z,47.10
2023-05-19T07:06:00.993Z,47.20
2023-05-19T07:08:34.448Z,47.20
2023-05-19T07:11:08.174Z,47.40
2023-05-19T07:13:39.610Z,47.40
2023-05-19T07:16:09.328Z,47.30
2023-05-19T07:18:43.572Z,47.30
2023-05-19T07:21:13.805Z,47.30
2023-05-19T07:23:40.709Z,47.10
2023-05-19T07:26:08.000Z,47.00
2023-05-19T07:28:39.765Z,46.90
2023-05-19T07:31:10.663Z,46.80
2023-05-19T07:33:41.173Z,46.80
2023-05-19T07:36:09.017Z,46.90
2023-05-19T07:38:36.106Z,46.90
2023-05-19T07:41:07.721Z,46.90
2023-05-19T07:43:36.852Z,46.80
2023-05-19T07:46:04.264Z,46.70
2023-05-19T07:48:33.367Z,46.60
2023-05-19T07:51:02.734Z,46.60
2023-05-19T07:53:29.989Z,46.60
2023-05-19T07:56:01.334Z,46.50
2023-05-19T07:58:28.318Z,46.50
2023-05-19T08:01:00.675Z,46.40
2023-05-19T08:03:27.899Z,46.50
2023-05-19T08:05:57.361Z,46.40
2023-05-19T08:08:26.894Z,46.40
2023-05-19T08:10:56.488Z,46.30
2023-05-19T08:13:25.892Z,46.40
2023-05-19T08:15:54.286Z,46.30
2023-05-19T08:18:25.527Z,46.30
2023-05-19T08:20:57.114Z,46.30
2023-05-19T08:23:26.415Z,46.10
2023-05-19T08:25:59.974Z,46.10
2023-05-19T08:28:29.360Z,46.10
2023-05-19T08:30:56.311Z,45.90
2023-05-19T08:33:25.486Z,45.90
2023-05-19T08:35:59.929Z,45.90
2023-05-19T08:38:26.985Z,45.70
2023-05-19T08:40:58.067Z,45.60
2023-05-19T08:43:29.849Z,45.60
2023-05-19T08:46:00.642Z,45.50
2023-05-19T08:48:37.091Z,45.50
2023-05-19T08:51:38.995Z,45.40
2023-05-19T08:54:22.427Z,45.30
2023-05-19T08:56:52.056Z,45.30
2023-05-19T08:59:25.626Z,45.20
2023-05-19T09:01:57.348Z,45.10
2023-05-19T09:04:30.350Z,45.10
2023-05-19T09:06:58.763Z,44.90
2023-05-19T09:09:27.872Z,44.90
2023-05-19T09:11:56.899Z,44.70
2023-05-19T09:14:26.545Z,44.60
2023-05-19T09:16:54.037Z,44.50
2023-05-19T09:19:31.251Z,44.40
2023-05-19T09:22:06.351Z,44.30
2023-05-19T09:24:38.459Z,44.20
2023-05-19T09:27:08.152Z,44.10
2023-05-19T09:29:37.210Z,44.00
2023-05-19T09:32:07.020Z,43.90
2023-05-19T09:34:43.766Z,43.80
2023-05-19T09:37:16.152Z,43.60
2023-05-19T09:39:49.112Z,43.50
2023-05-19T09:42:25.470Z,43.30
2023-05-19T09:45:05.854Z,43.30
2023-05-19T09:47:43.534Z,42.60
2023-05-19T09:50:15.080Z,42.70
2023-05-19T09:52:48.223Z,42.80
2023-05-19T09:55:23.048Z,43.00
2023-05-19T09:57:50.225Z,42.50
2023-05-19T10:00:20.915Z,42.70
2023-05-19T10:02:50.892Z,42.60
2023-05-19T10:05:20.879Z,42.80
2023-05-19T10:07:54.530Z,42.70
2023-05-19T10:10:24.577Z,42.40
2023-05-19T10:12:52.063Z,42.20
2023-05-19T10:15:22.727Z,42.00
2023-05-19T10:17:51.304Z,41.80
2023-05-19T10:20:22.714Z,41.70
2023-05-19T10:22:51.774Z,41.10
2023-05-19T10:25:21.062Z,41.10
2023-05-19T10:28:14.685Z,40.70
2023-05-19T10:30:49.384Z,40.00
2023-05-19T10:33:28.908Z,40.40
2023-05-19T10:36:23.015Z,40.00
2023-05-19T10:39:04.236Z,39.20
2023-05-19T10:42:30.419Z,39.40
2023-05-19T10:45:19.980Z,39.40
2023-05-19T10:47:50.449Z,39.20
2023-05-19T10:50:20.790Z,39.50
2023-05-19T10:53:00.147Z,39.00
2023-05-19T10:55:52.037Z,38.50
2023-05-19T10:58:52.157Z,38.10
2023-05-19T11:01:25.030Z,38.20
2023-05-19T11:03:57.328Z,38.60
2023-05-19T11:06:36.178Z,38.30
2023-05-19T11:09:17.388Z,37.70
2023-05-19T11:11:57.185Z,36.30
2023-05-19T11:14:31.529Z,38.20
2023-05-19T11:17:02.370Z,37.70
2023-05-19T11:19:35.425Z,37.80
2023-05-19T11:22:29.259Z,37.70
2023-05-19T11:24:56.384Z,37.00
2023-05-19T11:27:27.102Z,37.80
2023-05-19T11:29:57.018Z,37.60
2023-05-19T11:32:34.044Z,37.30
2023-05-19T11:35:06.069Z,37.20
2023-05-19T11:37:36.634Z,37.50
2023-05-19T11:40:08.279Z,37.50
2023-05-19T11:42:39.432Z,37.00
2023-05-19T11:45:10.417Z,37.00
2023-05-19T11:48:00.284Z,37.10
2023-05-19T11:50:31.198Z,37.00
2023-05-19T11:53:01.678Z,36.80
2023-05-19T11:55:31.981Z,36.40
2023-05-19T11:58:04.454Z,36.60
2023-05-19T12:00:40.776Z,36.30
2023-05-19T12:03:11.512Z,35.60
2023-05-19T12:05:45.973Z,35.60
2023-05-19T12:08:16.246Z,34.80
2023-05-19T12:10:48.805Z,35.00
2023-05-19T12:13:17.856Z,35.00
2023-05-19T12:15:47.595Z,34.90
2023-05-19T12:18:20.093Z,34.70
2023-05-19T12:20:50.654Z,34.30
2023-05-19T12:23:20.465Z,34.60
2023-05-19T12:25:49.216Z,34.70
2023-05-19T12:28:23.209Z,34.50
2023-05-19T12:30:52.484Z,34.00
2023-05-19T12:33:24.495Z,34.10
2023-05-19T12:35:57.041Z,33.90
2023-05-19T12:38:24.019Z,33.80
2023-05-19T12:40:51.309Z,33.60
2023-05-19T12:43:22.935Z,33.30
2023-05-19T12:45:50.135Z,32.60
2023-05-19T12:48:22.833Z,33.00
2023-05-19T12:50:55.786Z,32.00
2023-05-19T12:53:22.976Z,32.60
2023-05-19T12:55:54.517Z,32.40
2023-05-19T12:58:22.789Z,32.20
2023-05-19T13:00:50.600Z,32.50
2023-05-19T13:03:22.251Z,32.60
2023-05-19T13:05:55.884Z,32.80
2023-05-19T13:08:27.714Z,33.00
2023-05-19T13:10:56.913Z,32.80
2023-05-19T13:13:28.617Z,32.70
2023-05-19T13:15:58.070Z,32.50
2023-05-19T13:18:25.565Z,32.50
2023-05-19T13:20:54.691Z,32.50
2023-05-19T13:23:21.688Z,32.70
2023-05-19T13:25:50.769Z,32.60
2023-05-19T13:28:20.071Z,32.60
2023-05-19T13:30:49.648Z,32.70
2023-05-19T13:33:16.791Z,32.50
2023-05-19T13:35:46.442Z,32.60
2023-05-19T13:38:15.706Z,32.60
2023-05-19T13:40:45.562Z,32.70
2023-05-19T13:43:14.744Z,32.50
2023-05-19T13:45:46.709Z,32.30
2023-05-19T13:48:13.805Z,32.10
2023-05-19T13:50:40.823Z,32.00
2023-05-19T13:53:12.963Z,32.00
2023-05-19T13:55:42.408Z,31.80
2023-05-19T13:58:10.978Z,31.60
2023-05-19T14:00:43.340Z,31.60
2023-05-19T14:03:16.101Z,31.40
2023-05-19T14:05:47.630Z,31.30
2023-05-19T14:08:16.295Z,30.70
2023-05-19T14:10:45.717Z,31.00
2023-05-19T14:15:52.694Z,30.70
2023-05-19T14:18:26.605Z,30.70
2023-05-19T14:20:58.276Z,30.70
2023-05-19T14:23:25.242Z,30.50
2023-05-19T14:25:56.975Z,30.30
2023-05-19T14:28:24.091Z,30.00
2023-05-19T14:30:51.548Z,30.00
2023-05-19T14:33:21.244Z,29.80
2023-05-19T14:35:53.244Z,29.80
2023-05-19T14:38:20.230Z,29.90
2023-05-19T14:40:49.685Z,29.90
2023-05-19T14:43:25.959Z,30.00
2023-05-19T14:45:52.948Z,30.00
2023-05-19T14:48:19.948Z,30.10
2023-05-19T14:50:53.810Z,30.30
2023-05-19T14:53:23.258Z,30.30
2023-05-19T14:55:52.566Z,30.00
2023-05-19T14:58:28.889Z,30.10
2023-05-19T15:00:59.058Z,30.00
2023-05-19T15:03:28.277Z,30.00
2023-05-19T15:05:55.230Z,30.10
2023-05-19T15:08:22.215Z,30.10
2023-05-19T15:10:51.606Z,30.30
2023-05-19T15:13:21.468Z,30.20
2023-05-19T15:15:50.809Z,30.40
2023-05-19T15:18:20.879Z,30.50
2023-05-19T15:20:48.404Z,30.50
2023-05-19T15:23:15.356Z,30.50
2023-05-19T15:25:46.771Z,30.40
2023-05-19T15:28:17.024Z,30.40
2023-05-19T15:30:45.149Z,30.20
2023-05-19T15:33:12.770Z,30.30
2023-05-19T15:35:39.860Z,30.40
2023-05-19T15:38:07.083Z,30.50
2023-05-19T15:40:34.600Z,30.50
2023-05-19T15:43:02.017Z,30.70
2023-05-19T15:45:33.614Z,30.50
2023-05-19T15:48:03.216Z,30.50
2023-05-19T15:50:32.978Z,30.50
2023-05-19T15:53:02.577Z,30.80
2023-05-19T15:55:29.502Z,30.80
2023-05-19T15:58:00.651Z,31.00
2023-05-19T16:00:29.903Z,31.10
2023-05-19T16:03:01.929Z,31.10
2023-05-19T16:05:31.215Z,31.10
2023-05-19T16:08:00.578Z,31.10
2023-05-19T16:10:27.465Z,30.90
2023-05-19T16:12:56.374Z,30.50
2023-05-19T16:15:27.961Z,30.40
2023-05-19T16:17:57.601Z,31.10
2023-05-19T16:20:27.824Z,30.20
2023-05-19T16:22:55.403Z,30.50
2023-05-19T16:25:24.931Z,30.40
2023-05-19T16:27:54.493Z,30.30
2023-05-19T16:30:26.399Z,30.30
2023-05-19T16:32:56.253Z,30.10
2023-05-19T16:35:27.745Z,30.30
2023-05-19T16:37:59.717Z,30.50
2023-05-19T16:40:30.977Z,30.40
2023-05-19T16:42:58.177Z,30.50
2023-05-19T16:45:27.631Z,30.70
2023-05-19T16:47:54.696Z,30.70
2023-05-19T16:50:21.600Z,30.60
2023-05-19T16:52:50.840Z,30.60
2023-05-19T16:55:20.285Z,30.70
2023-05-19T16:57:47.595Z,30.70
2023-05-19T17:00:15.517Z,30.50
2023-05-19T17:02:47.763Z,30.60
2023-05-19T17:05:14.966Z,30.70
2023-05-19T17:07:44.016Z,30.60
2023-05-19T17:10:14.370Z,30.70
2023-05-19T17:12:48.256Z,30.70
2023-05-19T17:15:20.317Z,30.80
2023-05-19T17:17:47.317Z,30.90
2023-05-19T17:20:18.969Z,31.00
2023-05-19T17:22:45.818Z,31.00
2023-05-19T17:25:15.642Z,31.00
2023-05-19T17:27:46.904Z,31.10
2023-05-19T17:30:16.583Z,31.20
2023-05-19T17:32:45.958Z,31.20
2023-05-19T17:35:15.265Z,31.30
2023-05-19T17:37:44.493Z,31.30
2023-05-19T17:40:16.369Z,31.20
2023-05-19T17:42:45.790Z,31.10
2023-05-19T17:45:14.920Z,31.10
2023-05-19T17:47:41.932Z,31.20
2023-05-19T17:50:11.879Z,31.30
2023-05-19T17:52:47.369Z,31.30
2023-05-19T17:55:17.277Z,31.30
2023-05-19T17:57:47.864Z,31.40
2023-05-19T18:00:15.190Z,31.50
2023-05-19T18:02:44.739Z,31.40
2023-05-19T18:05:14.749Z,31.40
2023-05-19T18:07:44.894Z,31.50
2023-05-19T18:10:14.695Z,31.50
2023-05-19T18:12:49.051Z,31.50
2023-05-19T18:15:16.273Z,31.40
2023-05-19T18:17:48.170Z,31.40
2023-05-19T18:20:18.277Z,31.50
2023-05-19T18:22:45.180Z,31.50
2023-05-19T18:25:14.565Z,31.50
2023-05-19T18:27:47.452Z,31.60
2023-05-19T18:30:16.874Z,31.60
2023-05-19T18:32:50.473Z,31.60
2023-05-19T18:35:22.374Z,31.70
2023-05-19T18:37:51.944Z,31.70
2023-05-19T18:40:21.346Z,31.70
2023-05-19T18:42:50.481Z,31.80
2023-05-19T18:45:21.576Z,31.90
2023-05-19T18:47:50.539Z,31.90
2023-05-19T18:50:24.397Z,31.90
2023-05-19T18:52:54.112Z,32.10
2023-05-19T18:55:20.926Z,32.10
2023-05-19T18:57:47.907Z,32.20
2023-05-19T19:00:15.410Z,32.20
2023-05-19T19:02:46.717Z,32.40
2023-05-19T19:05:16.014Z,32.50
2023-05-19T19:07:44.904Z,32.50
2023-05-19T19:10:12.190Z,32.60
2023-05-19T19:12:39.186Z,32.60
2023-05-19T19:15:06.853Z,32.80
2023-05-19T19:17:33.705Z,32.80
2023-05-19T19:20:00.752Z,33.00
2023-05-19T19:22:32.315Z,33.00
2023-05-19T19:25:01.681Z,33.10
2023-05-19T19:27:30.962Z,33.20
2023-05-19T19:30:02.779Z,33.30
2023-05-19T19:32:32.586Z,33.40
2023-05-19T19:34:59.602Z,33.50
2023-05-19T19:37:28.534Z,33.50
2023-05-19T19:39:57.852Z,33.50
2023-05-19T19:42:29.760Z,33.60
2023-05-19T19:44:59.079Z,33.60
2023-05-19T19:47:28.118Z,33.70
2023-05-19T19:49:57.244Z,33.80
2023-05-19T19:52:26.365Z,33.90
2023-05-19T19:54:55.717Z,33.90
2023-05-19T19:57:22.664Z,34.20
2023-05-19T19:59:54.978Z,34.80
2023-05-19T20:02:22.397Z,34.20
2023-05-19T20:04:52.125Z,34.20
2023-05-19T20:07:20.744Z,34.20
2023-05-19T20:09:51.628Z,34.40
2023-05-19T20:12:21.138Z,34.50
2023-05-19T20:14:51.169Z,34.50
2023-05-19T20:17:20.879Z,34.50
2023-05-19T20:19:52.945Z,34.60
2023-05-19T20:22:22.020Z,34.60
2023-05-19T20:24:48.950Z,34.70
2023-05-19T20:27:15.916Z,34.70
2023-05-19T20:29:46.920Z,34.70
2023-05-19T20:32:16.383Z,34.80
2023-05-19T20:34:45.644Z,35.00
2023-05-19T20:37:20.935Z,34.90
2023-05-19T20:39:50.401Z,35.00
2023-05-19T20:42:22.115Z,35.00
2023-05-19T20:44:51.976Z,35.20
2023-05-19T20:47:20.882Z,35.10
2023-05-19T20:49:50.121Z,35.20
2023-05-19T20:52:23.770Z,35.20
2023-05-19T20:54:53.357Z,35.20
2023-05-19T20:57:28.797Z,35.30
2023-05-19T21:00:01.862Z,35.40
2023-05-19T21:02:28.820Z,35.40
2023-05-19T21:05:00.467Z,35.50
2023-05-19T21:07:27.568Z,35.70
2023-05-19T21:09:58.978Z,35.60
2023-05-19T21:12:34.532Z,35.70
2023-05-19T21:15:06.637Z,35.90
2023-05-19T21:17:33.585Z,35.90
2023-05-19T21:20:03.582Z,35.90
2023-05-19T21:22:32.626Z,36.00
2023-05-19T21:25:06.266Z,36.10
2023-05-19T21:27:36.272Z,36.20
2023-05-19T21:30:06.640Z,36.40
2023-05-19T21:32:38.450Z,36.40
2023-05-19T21:35:06.182Z,36.60
2023-05-19T21:37:37.584Z,36.60
2023-05-19T21:40:04.813Z,36.60
2023-05-19T21:42:34.838Z,36.70
2023-05-19T21:45:04.815Z,36.70
2023-05-19T21:47:31.712Z,36.80
2023-05-19T21:49:58.657Z,36.90
2023-05-19T21:52:25.592Z,37.00
2023-05-19T21:54:56.086Z,37.00
2023-05-19T21:57:23.053Z,37.10
2023-05-19T21:59:52.191Z,37.20
2023-05-19T22:02:19.146Z,37.20
2023-05-19T22:04:48.277Z,37.20
2023-05-19T22:07:17.676Z,37.40
2023-05-19T22:09:49.024Z,37.40
2023-05-19T22:12:15.963Z,37.70
2023-05-19T22:14:45.275Z,37.60
2023-05-19T22:17:12.427Z,37.70
2023-05-19T22:19:41.814Z,37.70
2023-05-19T22:22:14.133Z,37.80
2023-05-19T22:24:44.137Z,37.90
2023-05-19T22:27:11.529Z,38.10
2023-05-19T22:29:45.223Z,38.00
2023-05-19T22:32:17.932Z,38.00
2023-05-19T22:34:47.753Z,38.10
2023-05-19T22:37:17.207Z,38.20
2023-05-19T22:39:47.281Z,38.20
2023-05-19T22:42:16.451Z,38.30
2023-05-19T22:44:45.887Z,38.40
2023-05-19T22:47:13.921Z,38.60
2023-05-19T22:49:41.558Z,38.60
2023-05-19T22:52:12.844Z,38.70
2023-05-19T22:54:40.243Z,38.70
2023-05-19T22:57:07.259Z,38.80
2023-05-19T22:59:38.193Z,38.80
2023-05-19T23:02:06.032Z,39.00
2023-05-19T23:04:36.240Z,39.00
2023-05-19T23:07:05.709Z,39.00
2023-05-19T23:09:34.969Z,39.20
2023-05-19T23:12:04.859Z,39.30
2023-05-19T23:14:33.979Z,39.30
2023-05-19T23:17:03.015Z,39.30
2023-05-19T23:19:33.208Z,40.10
2023-05-19T23:22:07.261Z,39.50
2023-05-19T23:24:39.419Z,39.80
2023-05-19T23:27:08.731Z,39.80
2023-05-19T23:29:37.843Z,39.70
2023-05-19T23:32:05.206Z,39.70
2023-05-19T23:34:36.649Z,39.80
2023-05-19T23:37:05.796Z,39.90
2023-05-19T23:39:32.676Z,39.90
2023-05-19T23:42:04.096Z,40.00
2023-05-19T23:44:35.754Z,40.10
2023-05-19T23:47:02.836Z,40.10
2023-05-19T23:49:29.737Z,40.20
2023-05-19T23:51:56.891Z,40.20
2023-05-19T23:54:26.598Z,40.30
2023-05-19T23:56:58.360Z,40.40
2023-05-19T23:59:25.436Z,40.20
